Time;durP1;ratioP1;P1;durP2;ratioP2;P2;SDS_P1;SDS_P2;PMS_P1;PMS_P2;Temp;Humidity;BMP_temperature;BMP_pressure;BME280_temperature;BME280_humidity;BME280_pressure;Samples;Min_cycle;Max_cycle;Signal;HPM_P1;HPM_P2
2024/04/17 00:00:00;;;;;;;5.35;2.40;;;;;;;9.65;79.61;99108.25;5484947;26;20005;-60
2024/04/17 00:02:31;;;;;;;4.30;2.50;;;;;;;9.56;80.37;99108.94;5484529;26;20443;-58
2024/04/17 00:04:59;;;;;;;5.60;2.63;;;;;;;9.57;80.48;99107.13;5484631;26;20112;-57
2024/04/17 00:07:29;;;;;;;5.57;2.60;;;;;;;9.55;80.32;99103.69;5484462;26;20405;-57
2024/04/17 00:09:57;;;;;;;5.90;3.10;;;;;;;9.43;81.51;99102.78;5484502;26;20058;-58
2024/04/17 00:12:27;;;;;;;5.70;2.88;;;;;;;9.34;81.41;99095.47;5484190;26;20005;-57
2024/04/17 00:15:00;;;;;;;7.57;3.33;;;;;;;9.27;80.56;99100.41;5484745;26;20375;-58
2024/04/17 00:17:30;;;;;;;4.93;3.08;;;;;;;9.36;81.85;99093.56;5484329;26;20013;-58
2024/04/17 00:19:59;;;;;;;6.95;3.50;;;;;;;9.34;81.47;99076.84;5484693;26;19998;-59
2024/04/17 00:22:29;;;;;;;5.80;3.08;;;;;;;9.44;80.80;99075.22;5484588;26;20006;-59
2024/04/17 00:24:57;;;;;;;7.63;3.00;;;;;;;9.32;82.29;99081.44;5487720;26;19998;-57
2024/04/17 00:27:28;;;;;;;6.68;3.60;;;;;;;9.39;81.95;99074.72;5488094;26;19999;-59
2024/04/17 00:29:55;;;;;;;6.57;2.75;;;;;;;9.36;82.35;99067.81;5487789;26;20030;-56
2024/04/17 00:32:28;;;;;;;9.05;3.22;;;;;;;9.46;82.31;99062.66;5487807;26;19998;-58
2024/04/17 00:34:56;;;;;;;4.93;3.10;;;;;;;9.46;81.81;99057.34;5487546;26;20005;-57
2024/04/17 00:37:26;;;;;;;5.95;3.40;;;;;;;9.37;82.80;99058.03;5487747;26;20008;-54
2024/04/17 00:39:54;;;;;;;6.30;3.10;;;;;;;9.27;83.40;99041.03;5487480;26;20022;-58
2024/04/17 00:42:24;;;;;;;5.30;3.08;;;;;;;9.20;82.78;99031.78;5487823;26;19994;-56
2024/04/17 00:44:52;;;;;;;5.95;3.03;;;;;;;9.19;83.53;99036.28;5487680;26;19998;-59
2024/04/17 00:47:23;;;;;;;4.70;2.60;;;;;;;9.33;83.66;99027.25;5487764;26;20341;-58
2024/04/17 00:49:54;;;;;;;4.40;2.50;;;;;;;9.37;82.24;99026.09;5487668;26;20074;-57
2024/04/17 00:52:25;;;;;;;5.88;2.80;;;;;;;9.46;81.75;99017.41;5487388;26;20118;-60
2024/04/17 00:54:53;;;;;;;7.93;3.00;;;;;;;9.42;81.79;99013.25;5487816;26;20006;-59
2024/04/17 00:57:24;;;;;;;6.00;2.78;;;;;;;9.38;82.50;99010.00;5487725;26;19998;-57
2024/04/17 00:59:52;;;;;;;5.72;2.85;;;;;;;9.37;81.37;99012.78;5487702;26;20006;-56
2024/04/17 01:02:22;;;;;;;7.03;2.85;;;;;;;9.49;81.04;99009.19;5487514;26;20327;-55
2024/04/17 01:04:53;;;;;;;5.18;2.50;;;;;;;9.41;80.47;99016.91;5487521;26;20006;-58
2024/04/17 01:07:23;;;;;;;4.30;2.65;;;;;;;9.09;82.61;99017.47;5487418;26;20005;-58
2024/04/17 01:09:51;;;;;;;4.65;2.50;;;;;;;9.19;81.27;99015.00;5487676;26;20113;-58
2024/04/17 01:12:21;;;;;;;5.32;2.65;;;;;;;9.16;81.23;99009.88;5487315;26;20445;-59
2024/04/17 01:14:49;;;;;;;4.68;2.58;;;;;;;9.10;81.92;99005.88;5487261;26;20069;-58
2024/04/17 01:17:20;;;;;;;7.18;2.80;;;;;;;9.20;82.03;99003.38;5487443;26;19998;-57
2024/04/17 01:19:47;;;;;;;5.80;2.92;;;;;;;9.29;81.36;99002.69;5487297;26;20066;-56
2024/04/17 01:22:20;;;;;;;6.13;2.95;;;;;;;9.39;81.03;99003.72;5487401;26;20483;-57
2024/04/17 01:24:51;;;;;;;;;;;;;;;8.89;83.55;98999.47;5487649;26;20039;-56
2024/04/17 01:27:21;;;;;;;6.45;3.03;;;;;;;9.12;84.03;98990.63;5487216;26;19992;-56
2024/04/17 01:29:48;;;;;;;6.03;3.17;;;;;;;9.17;83.76;98993.81;5486972;26;20006;-58
2024/04/17 01:32:19;;;;;;;8.95;3.35;;;;;;;8.95;85.26;98993.69;5487075;26;19998;-57
2024/04/17 01:34:46;;;;;;;8.10;3.63;;;;;;;8.91;86.65;98994.03;5486168;26;19998;-57
2024/04/17 01:37:17;;;;;;;5.60;2.85;;;;;;;8.97;84.53;98981.13;5486944;26;20022;-54
2024/04/17 01:39:45;;;;;;;6.28;3.65;;;;;;;9.06;85.03;98977.78;5486587;26;20336;-58
2024/04/17 01:42:18;;;;;;;5.30;3.45;;;;;;;9.08;83.76;98967.06;5486426;26;20030;-58
2024/04/17 01:44:46;;;;;;;4.43;3.05;;;;;;;9.03;83.34;98969.19;5486679;26;19994;-57
2024/04/17 01:47:16;;;;;;;7.75;2.67;;;;;;;8.96;83.77;98968.78;5486893;26;19998;-58
2024/04/17 01:49:43;;;;;;;7.57;3.17;;;;;;;9.08;83.56;98961.75;5486781;26;20320;-57
2024/04/17 01:52:14;;;;;;;5.78;2.60;;;;;;;9.02;81.97;98959.53;5487116;26;19998;-58
2024/04/17 01:54:41;;;;;;;6.38;2.53;;;;;;;9.17;81.07;98945.09;5486949;26;20009;-59
2024/04/17 01:57:12;;;;;;;4.95;2.17;;;;;;;9.29;80.42;98953.97;5486507;26;20006;-57
2024/04/17 01:59:42;;;;;;;4.78;2.33;;;;;;;9.33;79.42;98955.41;5486528;26;19995;-59
2024/04/17 02:02:13;;;;;;;4.03;1.95;;;;;;;9.33;79.50;98955.41;5486702;26;20046;-58
2024/04/17 02:04:41;;;;;;;3.95;2.22;;;;;;;9.29;79.22;98952.13;5486488;26;19990;-58
2024/04/17 02:07:11;;;;;;;5.18;2.20;;;;;;;9.16;79.93;98946.88;5486213;26;20006;-57
2024/04/17 02:09:39;;;;;;;6.55;2.38;;;;;;;9.10;80.28;98943.84;5486590;26;20064;-57
2024/04/17 02:12:10;;;;;;;4.90;2.00;;;;;;;9.18;79.61;98944.97;5486514;26;19998;-58
2024/04/17 02:14:38;;;;;;;4.57;2.10;;;;;;;9.26;78.95;98949.69;5486420;26;20022;-58
2024/04/17 02:17:11;;;;;;;5.72;2.22;;;;;;;9.37;78.54;98962.22;5486326;26;19998;-60
2024/04/17 02:19:39;;;;;;;3.25;1.80;;;;;;;9.30;78.24;98975.13;5486337;26;20462;-59
2024/04/17 02:22:09;;;;;;;5.18;2.00;;;;;;;9.43;78.16;98972.38;5485976;26;20033;-57
2024/04/17 02:24:36;;;;;;;4.82;2.00;;;;;;;9.51;77.70;98974.47;5486242;26;20039;-57
2024/04/17 02:27:07;;;;;;;3.40;1.90;;;;;;;9.38;78.35;98977.22;5486179;26;20009;-57
2024/04/17 02:29:34;;;;;;;4.10;1.70;;;;;;;9.38;79.00;98987.84;5486172;26;19990;-58
2024/04/17 02:32:05;;;;;;;4.05;2.10;;;;;;;9.46;78.21;98982.81;5486023;25;20459;-60
2024/04/17 02:34:35;;;;;;;4.60;1.85;;;;;;;9.51;78.29;98985.09;5485923;26;19994;-58
2024/04/17 02:37:06;;;;;;;4.75;2.35;;;;;;;9.41;79.17;98983.13;5485479;26;20016;-57
2024/04/17 02:39:35;;;;;;;5.80;2.25;;;;;;;9.37;80.68;98980.84;5486135;26;20352;-57
2024/04/17 02:42:05;;;;;;;5.75;3.00;;;;;;;9.51;80.72;98988.63;5486021;26;20009;-58
2024/04/17 02:44:33;;;;;;;6.95;3.45;;;;;;;9.50;81.59;98984.25;5485990;26;20478;-56
2024/04/17 02:47:04;;;;;;;5.47;3.33;;;;;;;9.42;83.71;98976.00;5486037;26;20039;-60
2024/04/17 02:49:35;;;;;;;6.70;3.80;;;;;;;9.50;83.95;98978.94;5486083;26;20063;-58
2024/04/17 02:52:06;;;;;;;7.75;3.67;;;;;;;9.49;84.36;98979.91;5486028;26;20531;-58
2024/04/17 02:54:34;;;;;;;6.60;3.97;;;;;;;9.52;84.25;98969.00;5485898;26;20001;-58
2024/04/17 02:57:04;;;;;;;5.57;3.45;;;;;;;9.53;84.44;98975.19;5485955;26;20035;-57
2024/04/17 02:59:32;;;;;;;7.45;3.38;;;;;;;9.57;84.94;98972.19;5486227;26;20339;-57
2024/04/17 03:02:02;;;;;;;8.35;4.30;;;;;;;9.63;84.59;98979.69;5485795;26;19997;-57
2024/04/17 03:04:30;;;;;;;6.90;3.90;;;;;;;9.56;84.81;98978.47;5485801;26;20046;-58
2024/04/17 03:07:03;;;;;;;6.50;3.67;;;;;;;9.62;84.12;98983.31;5485716;26;20036;-60
2024/04/17 03:09:31;;;;;;;7.47;4.00;;;;;;;9.51;83.85;98975.31;5485538;26;20006;-60
2024/04/17 03:12:02;;;;;;;8.27;3.83;;;;;;;9.50;85.11;98978.94;5485217;26;20005;-57
2024/04/17 03:14:30;;;;;;;6.93;3.45;;;;;;;9.44;85.33;98982.06;5483642;26;19994;-57
2024/04/17 03:17:00;;;;;;;7.53;3.47;;;;;;;9.41;86.42;98968.97;5485322;26;20069;-57
2024/04/17 03:19:28;;;;;;;6.28;3.80;;;;;;;9.42;86.10;98968.03;5485209;26;20462;-57
2024/04/17 03:21:58;;;;;;;6.95;3.78;;;;;;;9.48;86.28;98953.41;5485297;26;19998;-58
2024/04/17 03:24:29;;;;;;;5.30;3.50;;;;;;;9.55;85.61;98952.81;5484681;26;20006;-57
2024/04/17 03:26:59;;;;;;;7.35;3.80;;;;;;;9.39;85.40;98949.63;5484919;26;20448;-58
2024/04/17 03:29:27;;;;;;;6.95;3.30;;;;;;;9.41;84.65;98948.53;5484645;26;19990;-58
2024/04/17 03:31:57;;;;;;;5.55;2.83;;;;;;;9.42;83.70;98947.56;5484802;26;20403;-57
2024/04/17 03:34:25;;;;;;;5.70;3.03;;;;;;;9.30;85.01;98948.50;5485317;26;20093;-57
2024/04/17 03:36:55;;;;;;;6.70;3.22;;;;;;;9.29;85.16;98946.81;5484536;26;20002;-57
2024/04/17 03:39:26;;;;;;;4.65;2.60;;;;;;;9.27;85.43;98955.88;5485537;26;20006;-59
2024/04/17 03:41:59;;;;;;;4.80;2.60;;;;;;;9.22;85.19;98948.22;5484550;26;20071;-58
2024/04/17 03:44:29;;;;;;;6.15;2.80;;;;;;;9.37;83.82;98952.41;5485697;26;20004;-57
2024/04/17 03:46:59;;;;;;;4.28;2.50;;;;;;;9.44;83.57;98952.78;5485337;26;20008;-59
2024/04/17 03:49:29;;;;;;;7.28;3.03;;;;;;;9.28;84.60;98946.94;5485354;26;20073;-55
2024/04/17 03:51:57;;;;;;;6.75;3.00;;;;;;;9.40;84.72;98954.00;5485006;26;19998;-57
2024/04/17 03:54:27;;;;;;;5.78;2.53;;;;;;;9.45;83.92;98950.00;5485098;26;20331;-60
2024/04/17 03:56:57;;;;;;;5.68;2.80;;;;;;;9.42;83.85;98957.38;5485169;26;19994;-58
2024/04/17 03:59:27;;;;;;;7.53;3.25;;;;;;;9.31;83.90;98952.88;5487621;26;20345;-57
2024/04/17 04:01:56;;;;;;;6.15;3.10;;;;;;;9.36;84.01;98955.16;5488434;26;19994;-57
2024/04/17 04:04:27;;;;;;;5.78;2.53;;;;;;;9.32;84.16;98957.22;5488411;26;20005;-57
2024/04/17 04:06:54;;;;;;;5.38;2.83;;;;;;;9.30;83.81;98959.16;5488617;26;20325;-58
2024/04/17 04:09:25;;;;;;;5.75;3.00;;;;;;;9.29;83.60;98959.28;5488064;26;20351;-61
2024/04/17 04:11:53;;;;;;;5.97;3.03;;;;;;;9.33;83.74;98966.91;5488115;26;19994;-56
2024/04/17 04:14:26;;;;;;;4.95;2.92;;;;;;;9.17;84.70;98971.69;5488348;26;20009;-57
2024/04/17 04:16:54;;;;;;;7.00;2.67;;;;;;;9.21;84.84;98981.13;5488332;26;19993;-59
2024/04/17 04:19:24;;;;;;;5.88;2.72;;;;;;;9.33;84.49;98982.00;5488018;26;20005;-57
2024/04/17 04:21:53;;;;;;;6.53;2.78;;;;;;;9.34;83.79;98978.38;5488393;26;20471;-59
2024/04/17 04:24:23;;;;;;;5.13;2.42;;;;;;;9.45;83.51;98978.44;5488554;26;20316;-57
2024/04/17 04:26:51;;;;;;;6.88;2.88;;;;;;;9.43;83.02;98983.88;5488540;26;20045;-57
2024/04/17 04:29:22;;;;;;;6.82;2.70;;;;;;;9.56;82.45;98981.16;5488243;26;20034;-59
2024/04/17 04:31:52;;;;;;;6.60;3.03;;;;;;;9.66;82.30;98976.81;5487829;26;20009;-57
2024/04/17 04:34:23;;;;;;;5.05;2.70;;;;;;;9.64;82.69;98976.06;5487671;26;20056;-55
2024/04/17 04:36:50;;;;;;;6.10;2.90;;;;;;;9.75;82.30;98977.94;5488279;26;20016;-58
2024/04/17 04:39:20;;;;;;;6.82;2.88;;;;;;;9.71;81.96;98987.94;5487792;26;20021;-59
2024/04/17 04:41:48;;;;;;;5.45;2.75;;;;;;;9.83;81.56;98988.81;5487988;26;20334;-61
2024/04/17 04:44:18;;;;;;;9.68;3.08;;;;;;;9.87;81.24;98992.09;5487757;26;20292;-60
2024/04/17 04:46:46;;;;;;;5.28;2.65;;;;;;;9.88;81.43;98978.66;5487899;26;20013;-57
2024/04/17 04:49:19;;;;;;;5.68;2.80;;;;;;;9.87;81.21;98981.44;5487538;26;19998;-58
2024/04/17 04:51:47;;;;;;;8.10;2.70;;;;;;;9.91;81.36;98993.56;5487591;26;20518;-56
2024/04/17 04:54:17;;;;;;;6.20;2.45;;;;;;;9.99;79.13;98983.16;5487755;26;20463;-59
2024/04/17 04:56:45;;;;;;;4.50;2.10;;;;;;;10.02;77.56;98990.91;5487835;26;20006;-59
2024/04/17 04:59:15;;;;;;;6.32;2.40;;;;;;;10.04;77.16;98989.00;5487507;26;20109;-56
2024/04/17 05:01:42;;;;;;;4.10;1.77;;;;;;;10.03;75.81;98988.13;5487403;26;20006;-57
2024/04/17 05:04:13;;;;;;;4.82;2.35;;;;;;;10.13;75.41;98992.72;5486880;26;20435;-56
2024/04/17 05:06:43;;;;;;;4.60;1.80;;;;;;;10.17;74.91;98991.53;5486986;26;20005;-55
2024/04/17 05:09:13;;;;;;;4.15;2.10;;;;;;;10.16;75.21;99001.34;5486852;26;20013;-58
2024/04/17 05:11:41;;;;;;;5.97;2.05;;;;;;;10.18;76.01;98999.41;5486338;26;20005;-57
2024/04/17 05:14:12;;;;;;;5.30;2.10;;;;;;;10.30;74.71;99001.13;5487040;26;20006;-57
2024/04/17 05:16:40;;;;;;;3.55;2.08;;;;;;;10.13;74.63;98996.22;5487201;26;20029;-58
2024/04/17 05:19:10;;;;;;;5.22;2.20;;;;;;;10.21;75.20;98996.50;5486804;26;20105;-57
2024/04/17 05:21:37;;;;;;;4.13;2.42;;;;;;;10.04;75.47;98992.50;5487334;26;20022;-56
2024/04/17 05:24:10;;;;;;;3.85;2.03;;;;;;;10.14;74.80;98992.63;5486738;26;20097;-58
2024/04/17 05:26:38;;;;;;;4.43;2.17;;;;;;;10.21;74.07;98991.16;5487742;26;20447;-56
2024/04/17 05:29:08;;;;;;;5.35;2.00;;;;;;;10.14;74.03;98983.78;5487245;26;20010;-55
2024/04/17 05:31:36;;;;;;;6.35;2.35;;;;;;;10.03;72.67;98982.78;5486708;26;20006;-56
2024/04/17 05:34:06;;;;;;;6.40;2.25;;;;;;;9.92;73.34;98984.59;5486923;26;20041;-56
2024/04/17 05:36:34;;;;;;;4.70;2.30;;;;;;;9.88;73.21;98978.66;5486224;26;20036;-58
2024/04/17 05:39:05;;;;;;;4.20;2.28;;;;;;;9.96;72.78;98980.75;5486783;26;20002;-56
2024/04/17 05:41:36;;;;;;;4.95;2.25;;;;;;;10.10;73.32;98990.31;5486518;26;19998;-56
2024/04/17 05:44:06;;;;;;;5.13;2.22;;;;;;;10.51;71.97;98995.06;5486183;26;20443;-57
2024/04/17 05:46:34;;;;;;;4.75;2.35;;;;;;;10.59;72.14;98996.16;5486232;26;20062;-56
2024/04/17 05:49:05;;;;;;;5.53;2.38;;;;;;;10.69;71.84;98998.94;5486899;26;20066;-57
2024/04/17 05:51:33;;;;;;;5.60;2.38;;;;;;;10.75;71.14;98993.09;5487932;26;19994;-53
2024/04/17 05:54:03;;;;;;;5.28;2.10;;;;;;;10.59;70.53;99000.63;5486703;26;19990;-54
2024/04/17 05:56:32;;;;;;;8.63;3.45;;;;;;;10.98;71.02;98993.91;5487123;26;19998;-56
2024/04/17 05:59:06;;;;;;;4.32;2.45;;;;;;;11.05;70.20;98996.91;5493730;26;20002;-56
2024/04/17 06:01:33;;;;;;;5.00;2.80;;;;;;;10.86;70.60;98992.22;5498297;25;20005;-54
2024/04/17 06:04:03;;;;;;;6.93;3.20;;;;;;;11.03;70.77;98993.53;5487222;26;19990;-56
2024/04/17 06:06:31;;;;;;;5.70;2.40;;;;;;;10.80;68.12;99009.56;5486803;26;19998;-56
2024/04/17 06:09:02;;;;;;;5.70;2.83;;;;;;;10.69;69.44;99012.25;5486877;26;19998;-59
2024/04/17 06:11:32;;;;;;;6.35;3.03;;;;;;;10.40;70.77;99006.59;5487020;26;19998;-59
2024/04/17 06:14:02;;;;;;;6.30;3.10;;;;;;;10.49;71.18;99005.00;5486940;26;20009;-56
2024/04/17 06:16:36;;;;;;;6.88;2.92;;;;;;;10.39;71.99;99002.22;5486832;26;19998;-54
2024/04/17 06:19:06;;;;;;;6.22;2.65;;;;;;;10.23;73.42;98997.28;5486927;26;20001;-58
2024/04/17 06:21:34;;;;;;;6.45;3.00;;;;;;;10.49;73.18;98999.69;5486278;26;20392;-58
2024/04/17 06:24:06;;;;;;;6.40;3.00;;;;;;;10.49;73.27;99002.34;5486533;26;20005;-56
2024/04/17 06:26:33;;;;;;;9.45;3.15;;;;;;;10.68;72.13;99005.22;5486411;26;20110;-57
2024/04/17 06:29:03;;;;;;;7.78;3.22;;;;;;;10.73;72.76;99002.22;5486606;26;19998;-57
2024/04/17 06:31:30;;;;;;;3.80;2.45;;;;;;;10.74;71.39;98998.56;5487008;26;20013;-56
2024/04/17 06:34:03;;;;;;;6.35;2.78;;;;;;;10.86;71.66;99005.56;5486245;26;20010;-51
2024/04/17 06:36:31;;;;;;;5.40;2.72;;;;;;;10.88;71.38;99004.47;5488225;26;20002;-57
2024/04/17 06:39:01;;;;;;;3.70;2.38;;;;;;;11.04;71.39;99000.56;5504283;25;20343;-53
2024/04/17 06:41:29;;;;;;;5.70;2.50;;;;;;;11.12;71.39;99011.47;5486734;26;20008;-57
2024/04/17 06:44:18;;;;;;;11.77;4.90;;;;;;;11.01;70.56;99017.69;5486215;26;19994;-54
2024/04/17 06:46:46;;;;;;;9.80;5.05;;;;;;;10.95;70.41;99006.66;5486791;26;20281;-56
2024/04/17 06:49:19;;;;;;;7.80;3.60;;;;;;;10.91;70.38;99002.56;5486384;26;20005;-54
2024/04/17 06:51:47;;;;;;;5.00;3.30;;;;;;;11.05;70.64;98996.91;5486698;26;20002;-56
2024/04/17 06:54:21;;;;;;;6.82;3.00;;;;;;;11.16;71.10;98997.72;5485719;26;20070;-58
2024/04/17 06:56:49;;;;;;;13.10;5.28;;;;;;;10.94;71.06;98989.78;5486208;26;20313;-57
2024/04/17 06:59:19;;;;;;;7.20;4.25;;;;;;;11.10;70.48;98986.72;5486023;26;20076;-53
2024/04/17 07:01:47;;;;;;;8.60;3.45;;;;;;;11.24;70.51;98986.44;5485925;26;20066;-56
2024/04/17 07:04:21;;;;;;;4.60;2.60;;;;;;;11.49;70.44;98977.22;5485718;26;19998;-56
2024/04/17 07:06:49;;;;;;;5.60;2.63;;;;;;;11.31;69.45;98981.44;5485795;26;19998;-52
2024/04/17 07:09:19;;;;;;;6.30;2.70;;;;;;;11.49;69.70;98971.03;5486030;26;19994;-55
2024/04/17 07:11:47;;;;;;;5.88;3.08;;;;;;;11.47;69.40;98974.66;5486431;26;20034;-52
2024/04/17 07:14:17;;;;;;;4.72;2.60;;;;;;;10.92;69.71;98969.56;5485867;26;20002;-55
2024/04/17 07:16:44;;;;;;;3.83;2.50;;;;;;;10.77;71.08;98967.16;5485696;26;20070;-52
2024/04/17 07:19:15;;;;;;;6.85;2.90;;;;;;;10.95;70.24;98970.16;5485894;26;20463;-51
2024/04/17 07:21:45;;;;;;;4.80;2.60;;;;;;;11.32;69.99;98959.94;5485450;26;20026;-56
2024/04/17 07:24:15;;;;;;;5.00;2.78;;;;;;;11.27;69.76;98956.78;5485567;26;20074;-54
2024/04/17 07:26:43;;;;;;;4.40;2.83;;;;;;;10.82;70.97;98964.97;5485688;26;20009;-55
2024/04/17 07:29:13;;;;;;;5.47;2.95;;;;;;;10.76;70.91;98957.47;5485349;26;20471;-57
2024/04/17 07:31:41;;;;;;;5.28;3.25;;;;;;;10.31;72.96;98962.00;5485269;26;20034;-53
2024/04/17 07:34:12;;;;;;;5.18;3.25;;;;;;;10.71;72.89;98957.00;5483509;26;19998;-54
2024/04/17 07:36:40;;;;;;;3.95;2.53;;;;;;;10.84;72.16;98957.69;5485196;26;19994;-55
2024/04/17 07:39:13;;;;;;;6.07;2.85;;;;;;;10.63;72.40;98956.78;5484923;26;19994;-57
2024/04/17 07:41:41;;;;;;;10.30;3.20;;;;;;;11.14;70.59;98948.13;5484964;26;20013;-59
2024/04/17 07:44:12;;;;;;;4.10;2.67;;;;;;;11.41;69.59;98964.50;5485065;26;20008;-55
2024/04/17 07:46:40;;;;;;;5.03;3.08;;;;;;;11.59;70.50;98958.59;5485623;26;20026;-55
2024/04/17 07:49:11;;;;;;;6.10;3.83;;;;;;;11.89;68.69;98949.81;5485449;26;19998;-54
2024/04/17 07:51:41;;;;;;;6.85;3.35;;;;;;;11.98;67.92;98947.22;5485437;26;19998;-54
2024/04/17 07:54:14;;;;;;;7.15;4.15;;;;;;;12.15;68.20;98947.53;5484657;26;20601;-55
2024/04/17 07:56:45;;;;;;;5.05;3.10;;;;;;;12.56;67.08;98958.13;5485484;26;19995;-48
2024/04/17 07:59:12;;;;;;;7.30;3.95;;;;;;;12.30;66.77;98946.22;5485198;26;20050;-51
2024/04/17 08:01:43;;;;;;;7.45;4.03;;;;;;;12.49;66.73;98938.25;5485112;26;20004;-51
2024/04/17 08:04:10;;;;;;;7.15;3.15;;;;;;;12.10;66.23;98944.44;5485238;26;20002;-50
2024/04/17 08:06:44;;;;;;;7.82;3.28;;;;;;;12.28;66.57;98940.16;5485666;26;20089;-51
2024/04/17 08:09:15;;;;;;;5.97;3.05;;;;;;;12.10;66.09;98933.75;5485530;26;19998;-52
2024/04/17 08:11:45;;;;;;;6.15;3.20;;;;;;;12.71;65.51;98942.53;5484568;26;19998;-50
2024/04/17 08:14:13;;;;;;;4.80;2.80;;;;;;;12.76;65.16;98944.81;5484653;26;20005;-52
2024/04/17 08:16:43;;;;;;;6.43;2.80;;;;;;;12.84;64.09;98937.78;5485326;26;20529;-51
2024/04/17 08:19:14;;;;;;;8.63;3.50;;;;;;;12.76;64.73;98934.13;5485023;26;20009;-53
2024/04/17 08:21:44;;;;;;;5.80;3.20;;;;;;;13.05;64.04;98935.00;5484574;26;20010;-52
2024/04/17 08:24:15;;;;;;;4.90;2.55;;;;;;;12.94;63.67;98927.09;5484538;26;20002;-54
2024/04/17 08:26:45;;;;;;;7.78;2.58;;;;;;;12.70;64.23;98937.31;5484457;26;19998;-54
2024/04/17 08:29:13;;;;;;;3.75;2.20;;;;;;;12.71;63.49;98920.28;5484623;26;20466;-54
2024/04/17 08:31:45;;;;;;;4.38;2.28;;;;;;;12.92;64.08;98922.84;5484342;26;19998;-57
2024/04/17 08:34:13;;;;;;;4.95;2.50;;;;;;;12.92;63.71;98918.34;5484291;26;20415;-52
2024/04/17 08:36:43;;;;;;;4.10;2.22;;;;;;;12.97;62.32;98921.47;5484595;26;19998;-54
2024/04/17 08:39:10;;;;;;;6.13;2.20;;;;;;;13.12;62.43;98914.72;5484655;26;19998;-54
2024/04/17 08:41:50;;;;;;;4.35;2.33;;;;;;;12.93;61.30;98913.84;5484153;26;20002;-56
2024/04/17 08:44:25;;;;;;;6.63;3.03;;;;;;;13.22;61.04;98911.19;5485401;26;19994;-58
2024/04/17 08:46:57;;;;;;;4.57;3.10;;;;;;;13.73;60.47;98905.50;5488269;26;20009;-57
2024/04/17 08:49:26;;;;;;;5.68;2.50;;;;;;;13.61;59.14;98899.47;5488409;26;19994;-57
2024/04/17 08:51:58;;;;;;;4.35;2.50;;;;;;;13.45;58.88;98905.41;5487923;26;19991;-52
2024/04/17 08:54:27;;;;;;;4.70;2.20;;;;;;;13.39;58.85;98910.50;5488182;26;19998;-53
2024/04/17 08:57:00;;;;;;;5.93;2.20;;;;;;;13.42;59.27;98896.84;5488247;26;20459;-54
2024/04/17 08:59:28;;;;;;;4.03;2.10;;;;;;;13.81;58.90;98899.44;5488254;26;19994;-55
2024/04/17 09:02:02;;;;;;;3.88;2.10;;;;;;;14.15;58.10;98889.84;5487983;26;20003;-52
2024/04/17 09:04:30;;;;;;;4.60;2.35;;;;;;;13.83;57.34;98892.94;5488467;26;20006;-54
2024/04/17 09:07:01;;;;;;;6.65;2.47;;;;;;;14.00;58.74;98878.75;5487868;26;20021;-52
2024/04/17 09:09:30;;;;;;;7.72;2.28;;;;;;;14.01;57.29;98884.97;5487708;26;19994;-56
2024/04/17 09:12:04;;;;;;;4.70;2.00;;;;;;;13.84;56.40;98883.03;5487378;26;20009;-54
2024/04/17 09:14:32;;;;;;;17.33;8.80;;;;;;;13.88;55.51;98885.28;5487950;26;20295;-56
2024/04/17 09:17:15;;;;;;;8.00;3.20;;;;;;;14.17;56.24;98884.31;5487475;26;20276;-54
2024/04/17 09:19:44;;;;;;;3.90;1.90;;;;;;;14.24;55.76;98885.41;5487451;26;20006;-56
2024/04/17 09:22:15;;;;;;;2.65;1.50;;;;;;;14.23;53.17;98883.72;5488271;26;20010;-58
2024/04/17 09:24:43;;;;;;;3.40;1.63;;;;;;;13.62;55.11;98887.78;5487125;26;20039;-57
2024/04/17 09:27:16;;;;;;;9.35;4.97;;;;;;;14.10;55.81;98888.59;5487001;26;19994;-54
2024/04/17 09:29:44;;;;;;;4.88;2.92;;;;;;;14.29;55.57;98884.00;5486659;26;20297;-55
2024/04/17 09:32:15;;;;;;;4.45;1.90;;;;;;;14.00;55.28;98889.50;5486945;26;19994;-54
2024/04/17 09:34:44;;;;;;;3.20;1.90;;;;;;;13.90;55.82;98887.84;5487395;26;19998;-55
2024/04/17 09:37:14;;;;;;;3.15;1.52;;;;;;;14.18;56.58;98889.53;5487234;26;20043;-53
2024/04/17 09:39:42;;;;;;;3.20;1.70;;;;;;;13.73;55.37;98892.94;5487379;26;20336;-54
2024/04/17 09:42:12;;;;;;;2.90;1.60;;;;;;;12.98;55.73;98888.34;5487485;26;20562;-57
2024/04/17 09:44:47;;;;;;;3.28;1.77;;;;;;;12.47;58.31;98896.59;5487079;26;19998;-55
2024/04/17 09:47:18;;;;;;;3.40;1.80;;;;;;;12.57;57.86;98894.78;5486959;26;20042;-54
2024/04/17 09:49:53;;;;;;;3.65;1.60;;;;;;;12.88;57.24;98882.16;5486241;26;19998;-55
2024/04/17 09:52:22;;;;;;;2.47;1.85;;;;;;;12.82;57.20;98893.41;5486942;26;19994;-53
2024/04/17 09:54:53;;;;;;;4.03;1.85;;;;;;;12.78;56.12;98900.03;5487303;26;19998;-53
2024/04/17 09:57:22;;;;;;;4.55;1.67;;;;;;;12.85;55.30;98890.47;5485584;26;20026;-54
2024/04/17 09:59:57;;;;;;;3.10;1.52;;;;;;;13.22;56.21;98887.97;5487118;26;20003;-57
2024/04/17 10:02:28;;;;;;;3.25;1.48;;;;;;;12.80;55.74;98896.22;5486650;26;20006;-58
2024/04/17 10:05:01;;;;;;;3.97;1.77;;;;;;;12.95;55.96;98885.13;5486317;26;20162;-59
2024/04/17 10:07:29;;;;;;;6.43;3.53;;;;;;;12.87;54.89;98878.63;5486381;26;20002;-58
2024/04/17 10:10:02;;;;;;;4.40;2.47;;;;;;;13.10;53.70;98873.84;5484611;26;19994;-57
2024/04/17 10:12:32;;;;;;;5.78;3.58;;;;;;;13.80;52.06;98871.78;5484873;26;19994;-58
2024/04/17 10:15:05;;;;;;;4.25;2.10;;;;;;;13.89;53.23;98872.72;5485888;26;20363;-56
2024/04/17 10:17:33;;;;;;;2.75;1.58;;;;;;;13.65;52.96;98874.06;5485982;26;20419;-57
2024/04/17 10:20:07;;;;;;;5.25;1.40;;;;;;;13.49;52.28;98868.47;5487437;26;20338;-60
2024/04/17 10:22:37;;;;;;;2.17;1.27;;;;;;;13.39;52.20;98878.34;5486683;26;20002;-56
2024/04/17 10:25:08;;;;;;;2.50;1.48;;;;;;;14.01;51.45;98871.56;5486327;26;19998;-58
2024/04/17 10:27:48;;;;;;;2.15;1.40;;;;;;;13.70;51.86;98868.25;5486351;26;20302;-56
2024/04/17 10:30:21;;;;;;;3.28;1.40;;;;;;;13.64;52.66;98859.00;5486852;26;20002;-56
2024/04/17 10:32:49;;;;;;;1.83;1.20;;;;;;;12.83;52.54;98873.69;5486503;26;19990;-59
2024/04/17 10:35:20;;;;;;;3.03;1.75;;;;;;;13.08;52.56;98874.97;5486343;26;20012;-55
2024/04/17 10:37:48;;;;;;;2.53;1.05;;;;;;;13.20;51.39;98867.66;5484937;26;20009;-59
2024/04/17 10:40:19;;;;;;;2.10;1.20;;;;;;;12.97;50.96;98878.63;5485125;26;20070;-55
2024/04/17 10:42:47;;;;;;;9.05;2.60;;;;;;;13.53;51.26;98863.69;5485827;26;20078;-57
2024/04/17 10:45:19;;;;;;;8.00;3.67;;;;;;;13.86;50.15;98862.28;5485886;26;20110;-58
2024/04/17 10:47:52;;;;;;;5.00;2.17;;;;;;;14.46;48.73;98868.09;5485406;26;20455;-59
2024/04/17 10:50:22;;;;;;;2.70;1.30;;;;;;;13.96;48.63;98855.91;5486084;26;20463;-56
2024/04/17 10:52:52;;;;;;;1.75;1.13;;;;;;;13.83;47.80;98851.88;5485627;26;20004;-58
2024/04/17 10:55:22;;;;;;;2.17;1.17;;;;;;;13.79;49.48;98853.16;5486139;26;19998;-59
2024/04/17 10:57:50;;;;;;;3.28;1.45;;;;;;;13.72;50.67;98853.75;5486106;26;19994;-58
2024/04/17 11:00:20;;;;;;;2.10;1.13;;;;;;;13.98;47.72;98855.75;5486343;26;20006;-58
2024/04/17 11:02:52;;;;;;;2.30;1.10;;;;;;;13.53;49.46;98864.53;5485781;26;20346;-57
2024/04/17 11:05:24;;;;;;;3.28;1.40;;;;;;;13.29;51.91;98850.75;5485521;26;20028;-56
2024/04/17 11:07:56;;;;;;;2.88;1.42;;;;;;;13.62;51.68;98847.56;5483742;26;19998;-57
2024/04/17 11:10:24;;;;;;;2.33;1.23;;;;;;;13.25;50.97;98849.34;5485620;26;20001;-57
2024/04/17 11:12:55;;;;;;;3.03;1.30;;;;;;;13.28;51.31;98855.25;5485312;26;20109;-59
2024/04/17 11:15:23;;;;;;;2.88;1.20;;;;;;;13.58;50.86;98851.53;5485751;26;19994;-59
2024/04/17 11:17:56;;;;;;;1.50;1.20;;;;;;;13.77;50.27;98849.78;5485057;26;20006;-58
2024/04/17 11:20:24;;;;;;;;;;;;;;;14.13;50.39;98840.88;5485845;26;20002;-58
2024/04/17 11:22:56;;;;;;;5.00;2.65;;;;;;;14.19;49.47;98836.78;5485802;26;19923;-57
2024/04/17 11:25:24;;;;;;;;;;;;;;;14.42;48.98;98847.91;5486163;26;20372;-59
2024/04/17 11:27:55;;;;;;;3.72;1.80;;;;;;;13.98;48.97;98848.56;5485620;26;19996;-57
2024/04/17 11:30:23;;;;;;;3.63;1.80;;;;;;;14.05;49.03;98848.81;5485207;26;20321;-57
2024/04/17 11:32:56;;;;;;;1.65;1.10;;;;;;;13.79;48.40;98847.78;5485400;26;19994;-58
2024/04/17 11:35:24;;;;;;;1.70;1.10;;;;;;;13.82;49.43;98847.50;5485540;26;19998;-57
2024/04/17 11:37:54;;;;;;;1.85;1.17;;;;;;;13.93;49.99;98844.66;5485323;26;20046;-56
2024/04/17 11:40:22;;;;;;;5.13;1.48;;;;;;;13.58;50.72;98846.16;5485465;26;19998;-55
2024/04/17 11:42:54;;;;;;;2.47;1.40;;;;;;;13.75;50.65;98834.69;5485261;26;19998;-59
2024/04/17 11:45:22;;;;;;;3.35;1.58;;;;;;;13.96;49.75;98829.09;5484719;26;20009;-57
2024/04/17 11:47:52;;;;;;;3.75;1.40;;;;;;;14.08;50.25;98837.78;5484638;26;20002;-58